sensor_id;sensor_type;location;lat;lon;timestamp;P1;durP1;ratioP1;P2;durP2;ratioP2
8230;SDS011;4156;50.908;6.974;2023-05-21T00:00:30;10.03;;;7.30;;
8230;SDS011;4156;50.908;6.974;2023-05-21T00:02:56;11.17;;;7.43;;
8230;SDS011;4156;50.908;6.974;2023-05-21T00:05:23;10.87;;;7.30;;
8230;SDS011;4156;50.908;6.974;2023-05-21T00:07:48;9.30;;;7.10;;
8230;SDS011;4156;50.908;6.974;2023-05-21T00:10:17;9.77;;;7.63;;
8230;SDS011;4156;50.908;6.974;2023-05-21T00:12:42;9.47;;;7.20;;
8230;SDS011;4156;50.908;6.974;2023-05-21T00:15:08;9.30;;;7.63;;
8230;SDS011;4156;50.908;6.974;2023-05-21T00:17:34;9.77;;;7.10;;
8230;SDS011;4156;50.908;6.974;2023-05-21T00:20:02;10.03;;;7.57;;
8230;SDS011;4156;50.908;6.974;2023-05-21T00:22:31;11.10;;;8.13;;
8230;SDS011;4156;50.908;6.974;2023-05-21T00:24:57;11.47;;;8.47;;
8230;SDS011;4156;50.908;6.974;2023-05-21T00:27:23;11.57;;;8.40;;
8230;SDS011;4156;50.908;6.974;2023-05-21T00:29:48;15.07;;;8.60;;
8230;SDS011;4156;50.908;6.974;2023-05-21T00:32:14;9.47;;;7.27;;
8230;SDS011;4156;50.908;6.974;2023-05-21T00:34:40;10.50;;;7.73;;
8230;SDS011;4156;50.908;6.974;2023-05-21T00:37:06;10.93;;;7.87;;
8230;SDS011;4156;50.908;6.974;2023-05-21T00:39:33;9.90;;;7.83;;
8230;SDS011;4156;50.908;6.974;2023-05-21T00:41:59;10.37;;;7.73;;
8230;SDS011;4156;50.908;6.974;2023-05-21T00:44:25;10.37;;;7.57;;
8230;SDS011;4156;50.908;6.974;2023-05-21T00:46:52;10.47;;;7.87;;
8230;SDS011;4156;50.908;6.974;2023-05-21T00:49:18;9.40;;;7.87;;
8230;SDS011;4156;50.908;6.974;2023-05-21T00:51:46;10.90;;;7.83;;
8230;SDS011;4156;50.908;6.974;2023-05-21T00:54:12;12.33;;;8.47;;
8230;SDS011;4156;50.908;6.974;2023-05-21T00:56:38;10.67;;;8.40;;
8230;SDS011;4156;50.908;6.974;2023-05-21T00:59:04;10.07;;;8.00;;
8230;SDS011;4156;50.908;6.974;2023-05-21T01:01:30;13.63;;;7.87;;
8230;SDS011;4156;50.908;6.974;2023-05-21T01:03:57;9.93;;;7.70;;
8230;SDS011;4156;50.908;6.974;2023-05-21T01:06:25;10.10;;;7.57;;
8230;SDS011;4156;50.908;6.974;2023-05-21T01:08:52;10.73;;;7.97;;
8230;SDS011;4156;50.908;6.974;2023-05-21T01:11:20;11.13;;;8.23;;
8230;SDS011;4156;50.908;6.974;2023-05-21T01:14:00;10.03;;;8.10;;
8230;SDS011;4156;50.908;6.974;2023-05-21T01:16:26;10.50;;;7.63;;
8230;SDS011;4156;50.908;6.974;2023-05-21T01:18:52;13.60;;;8.23;;
8230;SDS011;4156;50.908;6.974;2023-05-21T01:21:17;11.40;;;8.03;;
8230;SDS011;4156;50.908;6.974;2023-05-21T01:23:45;11.30;;;7.70;;
8230;SDS011;4156;50.908;6.974;2023-05-21T01:26:11;12.47;;;7.50;;
8230;SDS011;4156;50.908;6.974;2023-05-21T01:28:37;9.13;;;7.60;;
8230;SDS011;4156;50.908;6.974;2023-05-21T01:31:04;11.00;;;8.40;;
8230;SDS011;4156;50.908;6.974;2023-05-21T01:33:50;11.00;;;7.93;;
8230;SDS011;4156;50.908;6.974;2023-05-21T01:36:20;9.13;;;7.17;;
8230;SDS011;4156;50.908;6.974;2023-05-21T01:38:51;10.17;;;8.30;;
8230;SDS011;4156;50.908;6.974;2023-05-21T01:41:24;10.53;;;8.07;;
8230;SDS011;4156;50.908;6.974;2023-05-21T01:43:53;11.17;;;8.20;;
8230;SDS011;4156;50.908;6.974;2023-05-21T01:46:23;9.37;;;7.17;;
8230;SDS011;4156;50.908;6.974;2023-05-21T01:48:53;9.47;;;7.23;;
8230;SDS011;4156;50.908;6.974;2023-05-21T01:51:20;8.57;;;7.20;;
8230;SDS011;4156;50.908;6.974;2023-05-21T01:53:45;9.83;;;7.00;;
8230;SDS011;4156;50.908;6.974;2023-05-21T01:56:11;9.60;;;7.40;;
8230;SDS011;4156;50.908;6.974;2023-05-21T01:58:36;11.03;;;7.47;;
8230;SDS011;4156;50.908;6.974;2023-05-21T02:01:02;8.87;;;7.30;;
8230;SDS011;4156;50.908;6.974;2023-05-21T02:03:28;10.20;;;7.90;;
8230;SDS011;4156;50.908;6.974;2023-05-21T02:05:55;10.37;;;7.73;;
8230;SDS011;4156;50.908;6.974;2023-05-21T02:08:20;10.17;;;7.57;;
8230;SDS011;4156;50.908;6.974;2023-05-21T02:10:47;11.47;;;7.60;;
8230;SDS011;4156;50.908;6.974;2023-05-21T02:13:13;10.07;;;6.90;;
8230;SDS011;4156;50.908;6.974;2023-05-21T02:15:38;9.70;;;7.00;;
8230;SDS011;4156;50.908;6.974;2023-05-21T02:18:04;9.53;;;7.23;;
8230;SDS011;4156;50.908;6.974;2023-05-21T02:20:30;11.37;;;7.70;;
8230;SDS011;4156;50.908;6.974;2023-05-21T02:22:56;9.27;;;7.03;;
8230;SDS011;4156;50.908;6.974;2023-05-21T02:25:21;8.67;;;6.90;;
8230;SDS011;4156;50.908;6.974;2023-05-21T02:27:47;10.03;;;7.50;;
8230;SDS011;4156;50.908;6.974;2023-05-21T02:30:17;9.87;;;7.30;;
8230;SDS011;4156;50.908;6.974;2023-05-21T02:32:43;9.47;;;7.20;;
8230;SDS011;4156;50.908;6.974;2023-05-21T02:35:10;9.83;;;6.80;;
8230;SDS011;4156;50.908;6.974;2023-05-21T02:37:37;10.07;;;6.90;;
8230;SDS011;4156;50.908;6.974;2023-05-21T02:40:08;8.07;;;6.97;;
8230;SDS011;4156;50.908;6.974;2023-05-21T02:42:34;9.90;;;6.80;;
8230;SDS011;4156;50.908;6.974;2023-05-21T02:45:00;8.97;;;7.10;;
8230;SDS011;4156;50.908;6.974;2023-05-21T02:47:26;7.30;;;5.73;;
8230;SDS011;4156;50.908;6.974;2023-05-21T02:49:52;7.13;;;6.30;;
8230;SDS011;4156;50.908;6.974;2023-05-21T02:52:18;7.17;;;6.13;;
8230;SDS011;4156;50.908;6.974;2023-05-21T02:54:47;8.57;;;6.53;;
8230;SDS011;4156;50.908;6.974;2023-05-21T02:57:13;8.97;;;6.20;;
8230;SDS011;4156;50.908;6.974;2023-05-21T02:59:40;8.80;;;6.27;;
8230;SDS011;4156;50.908;6.974;2023-05-21T03:02:05;9.90;;;6.80;;
8230;SDS011;4156;50.908;6.974;2023-05-21T03:04:31;10.03;;;6.63;;
8230;SDS011;4156;50.908;6.974;2023-05-21T03:06:57;9.13;;;6.10;;
8230;SDS011;4156;50.908;6.974;2023-05-21T03:09:26;7.90;;;6.67;;
8230;SDS011;4156;50.908;6.974;2023-05-21T03:11:51;7.97;;;6.03;;
8230;SDS011;4156;50.908;6.974;2023-05-21T03:14:17;8.17;;;6.30;;
8230;SDS011;4156;50.908;6.974;2023-05-21T03:16:42;9.77;;;5.83;;
8230;SDS011;4156;50.908;6.974;2023-05-21T03:19:08;7.90;;;6.57;;
8230;SDS011;4156;50.908;6.974;2023-05-21T03:21:35;10.13;;;6.07;;
8230;SDS011;4156;50.908;6.974;2023-05-21T03:24:01;7.07;;;6.23;;
8230;SDS011;4156;50.908;6.974;2023-05-21T03:26:28;7.90;;;6.10;;
8230;SDS011;4156;50.908;6.974;2023-05-21T03:28:54;9.10;;;6.70;;
8230;SDS011;4156;50.908;6.974;2023-05-21T03:31:20;8.77;;;6.00;;
8230;SDS011;4156;50.908;6.974;2023-05-21T03:33:47;9.00;;;6.10;;
8230;SDS011;4156;50.908;6.974;2023-05-21T03:36:12;9.93;;;6.97;;
8230;SDS011;4156;50.908;6.974;2023-05-21T03:38:40;12.77;;;7.13;;
8230;SDS011;4156;50.908;6.974;2023-05-21T03:41:06;7.80;;;6.40;;
8230;SDS011;4156;50.908;6.974;2023-05-21T03:43:32;7.17;;;5.43;;
8230;SDS011;4156;50.908;6.974;2023-05-21T03:45:58;11.23;;;6.77;;
8230;SDS011;4156;50.908;6.974;2023-05-21T03:48:23;8.10;;;6.33;;
8230;SDS011;4156;50.908;6.974;2023-05-21T03:50:49;8.97;;;6.97;;
8230;SDS011;4156;50.908;6.974;2023-05-21T03:53:15;8.70;;;6.43;;
8230;SDS011;4156;50.908;6.974;2023-05-21T03:55:42;8.20;;;6.47;;
8230;SDS011;4156;50.908;6.974;2023-05-21T03:58:08;8.30;;;6.60;;
8230;SDS011;4156;50.908;6.974;2023-05-21T04:00:34;11.40;;;6.90;;
8230;SDS011;4156;50.908;6.974;2023-05-21T04:03:01;10.13;;;6.83;;
8230;SDS011;4156;50.908;6.974;2023-05-21T04:05:28;8.47;;;6.63;;
8230;SDS011;4156;50.908;6.974;2023-05-21T04:07:54;8.80;;;6.67;;
8230;SDS011;4156;50.908;6.974;2023-05-21T04:10:20;9.20;;;6.47;;
8230;SDS011;4156;50.908;6.974;2023-05-21T04:12:47;10.20;;;7.23;;
8230;SDS011;4156;50.908;6.974;2023-05-21T04:15:17;7.03;;;5.93;;
8230;SDS011;4156;50.908;6.974;2023-05-21T04:17:43;9.60;;;7.00;;
8230;SDS011;4156;50.908;6.974;2023-05-21T04:20:11;9.43;;;6.30;;
8230;SDS011;4156;50.908;6.974;2023-05-21T04:22:41;10.17;;;6.87;;
8230;SDS011;4156;50.908;6.974;2023-05-21T04:25:42;17.37;;;8.70;;
8230;SDS011;4156;50.908;6.974;2023-05-21T04:51:31;8.07;;;6.43;;
8230;SDS011;4156;50.908;6.974;2023-05-21T04:53:59;7.77;;;6.60;;
8230;SDS011;4156;50.908;6.974;2023-05-21T04:56:24;9.70;;;7.53;;
8230;SDS011;4156;50.908;6.974;2023-05-21T05:02:25;9.33;;;6.87;;
8230;SDS011;4156;50.908;6.974;2023-05-21T05:05:06;11.77;;;7.40;;
8230;SDS011;4156;50.908;6.974;2023-05-21T05:07:31;8.53;;;7.13;;
8230;SDS011;4156;50.908;6.974;2023-05-21T05:09:57;9.43;;;6.87;;
8230;SDS011;4156;50.908;6.974;2023-05-21T05:12:22;9.10;;;7.30;;
8230;SDS011;4156;50.908;6.974;2023-05-21T05:14:48;7.90;;;6.67;;
8230;SDS011;4156;50.908;6.974;2023-05-21T05:17:13;9.23;;;7.60;;
8230;SDS011;4156;50.908;6.974;2023-05-21T05:19:39;14.10;;;8.20;;
8230;SDS011;4156;50.908;6.974;2023-05-21T05:22:04;10.07;;;7.10;;
8230;SDS011;4156;50.908;6.974;2023-05-21T05:24:30;10.47;;;7.53;;
8230;SDS011;4156;50.908;6.974;2023-05-21T05:26:56;11.57;;;6.83;;
8230;SDS011;4156;50.908;6.974;2023-05-21T05:29:21;8.80;;;6.67;;
8230;SDS011;4156;50.908;6.974;2023-05-21T05:31:47;12.97;;;8.57;;
8230;SDS011;4156;50.908;6.974;2023-05-21T05:34:12;7.93;;;6.90;;
8230;SDS011;4156;50.908;6.974;2023-05-21T05:36:38;10.13;;;7.30;;
8230;SDS011;4156;50.908;6.974;2023-05-21T05:39:03;9.63;;;7.03;;
8230;SDS011;4156;50.908;6.974;2023-05-21T05:41:29;10.50;;;7.03;;
8230;SDS011;4156;50.908;6.974;2023-05-21T05:43:55;9.83;;;7.30;;
8230;SDS011;4156;50.908;6.974;2023-05-21T05:46:20;9.53;;;7.13;;
8230;SDS011;4156;50.908;6.974;2023-05-21T05:48:46;9.23;;;7.10;;
8230;SDS011;4156;50.908;6.974;2023-05-21T05:51:11;10.70;;;6.53;;
8230;SDS011;4156;50.908;6.974;2023-05-21T05:53:39;8.10;;;6.63;;
8230;SDS011;4156;50.908;6.974;2023-05-21T05:56:05;9.20;;;7.00;;
8230;SDS011;4156;50.908;6.974;2023-05-21T05:58:30;9.60;;;6.87;;
8230;SDS011;4156;50.908;6.974;2023-05-21T06:00:56;8.90;;;7.07;;
8230;SDS011;4156;50.908;6.974;2023-05-21T06:03:22;7.37;;;6.30;;
8230;SDS011;4156;50.908;6.974;2023-05-21T06:05:47;9.27;;;7.17;;
8230;SDS011;4156;50.908;6.974;2023-05-21T06:08:13;9.73;;;7.03;;
8230;SDS011;4156;50.908;6.974;2023-05-21T06:10:39;8.43;;;6.53;;
8230;SDS011;4156;50.908;6.974;2023-05-21T06:13:05;9.10;;;6.97;;
8230;SDS011;4156;50.908;6.974;2023-05-21T06:15:30;9.43;;;7.07;;
8230;SDS011;4156;50.908;6.974;2023-05-21T06:17:57;7.13;;;6.20;;
8230;SDS011;4156;50.908;6.974;2023-05-21T06:20:22;7.63;;;6.77;;
8230;SDS011;4156;50.908;6.974;2023-05-21T06:22:48;8.30;;;6.77;;
8230;SDS011;4156;50.908;6.974;2023-05-21T06:25:13;8.93;;;6.60;;
8230;SDS011;4156;50.908;6.974;2023-05-21T06:27:40;8.60;;;6.47;;
8230;SDS011;4156;50.908;6.974;2023-05-21T06:30:05;7.23;;;6.03;;
8230;SDS011;4156;50.908;6.974;2023-05-21T06:32:32;9.23;;;6.33;;
8230;SDS011;4156;50.908;6.974;2023-05-21T06:34:57;11.37;;;7.07;;
8230;SDS011;4156;50.908;6.974;2023-05-21T06:37:23;11.03;;;7.10;;
8230;SDS011;4156;50.908;6.974;2023-05-21T06:39:48;9.20;;;6.97;;
8230;SDS011;4156;50.908;6.974;2023-05-21T06:42:14;8.80;;;6.10;;
8230;SDS011;4156;50.908;6.974;2023-05-21T06:44:40;8.20;;;6.17;;
8230;SDS011;4156;50.908;6.974;2023-05-21T06:47:05;9.13;;;6.50;;
8230;SDS011;4156;50.908;6.974;2023-05-21T06:49:31;7.60;;;5.67;;
8230;SDS011;4156;50.908;6.974;2023-05-21T06:51:57;6.63;;;5.53;;
8230;SDS011;4156;50.908;6.974;2023-05-21T06:54:22;7.23;;;5.47;;
8230;SDS011;4156;50.908;6.974;2023-05-21T06:56:48;7.03;;;5.90;;
8230;SDS011;4156;50.908;6.974;2023-05-21T06:59:13;7.55;;;6.15;;
8230;SDS011;4156;50.908;6.974;2023-05-21T07:01:39;8.60;;;5.47;;
8230;SDS011;4156;50.908;6.974;2023-05-21T07:04:08;7.20;;;5.53;;
8230;SDS011;4156;50.908;6.974;2023-05-21T07:06:34;7.10;;;5.50;;
8230;SDS011;4156;50.908;6.974;2023-05-21T07:09:01;7.87;;;5.43;;
8230;SDS011;4156;50.908;6.974;2023-05-21T07:11:27;7.53;;;5.40;;
8230;SDS011;4156;50.908;6.974;2023-05-21T07:13:53;7.90;;;5.47;;
8230;SDS011;4156;50.908;6.974;2023-05-21T07:16:21;10.40;;;6.00;;
8230;SDS011;4156;50.908;6.974;2023-05-21T07:18:47;6.53;;;5.37;;
8230;SDS011;4156;50.908;6.974;2023-05-21T07:21:13;6.73;;;6.03;;
8230;SDS011;4156;50.908;6.974;2023-05-21T07:23:38;7.17;;;5.80;;
8230;SDS011;4156;50.908;6.974;2023-05-21T07:26:04;8.00;;;6.93;;
8230;SDS011;4156;50.908;6.974;2023-05-21T07:28:29;7.57;;;5.80;;
8230;SDS011;4156;50.908;6.974;2023-05-21T07:30:55;7.80;;;5.73;;
8230;SDS011;4156;50.908;6.974;2023-05-21T07:33:20;8.20;;;5.70;;
8230;SDS011;4156;50.908;6.974;2023-05-21T07:35:46;9.40;;;6.03;;
8230;SDS011;4156;50.908;6.974;2023-05-21T07:38:12;7.90;;;5.70;;
8230;SDS011;4156;50.908;6.974;2023-05-21T07:40:38;8.07;;;6.53;;
8230;SDS011;4156;50.908;6.974;2023-05-21T07:43:03;6.53;;;5.43;;
8230;SDS011;4156;50.908;6.974;2023-05-21T07:45:29;7.97;;;5.87;;
8230;SDS011;4156;50.908;6.974;2023-05-21T07:47:54;9.23;;;7.03;;
8230;SDS011;4156;50.908;6.974;2023-05-21T07:50:20;6.77;;;5.60;;
8230;SDS011;4156;50.908;6.974;2023-05-21T07:52:46;10.57;;;6.70;;
8230;SDS011;4156;50.908;6.974;2023-05-21T07:55:11;8.33;;;6.60;;
8230;SDS011;4156;50.908;6.974;2023-05-21T07:57:37;7.57;;;6.73;;
8230;SDS011;4156;50.908;6.974;2023-05-21T08:00:02;8.70;;;6.77;;
8230;SDS011;4156;50.908;6.974;2023-05-21T08:02:32;8.83;;;6.17;;
8230;SDS011;4156;50.908;6.974;2023-05-21T08:04:57;7.07;;;5.80;;
8230;SDS011;4156;50.908;6.974;2023-05-21T08:07:23;7.67;;;5.77;;
8230;SDS011;4156;50.908;6.974;2023-05-21T08:09:48;8.23;;;5.70;;
8230;SDS011;4156;50.908;6.974;2023-05-21T08:12:14;7.07;;;6.07;;
8230;SDS011;4156;50.908;6.974;2023-05-21T08:14:40;11.23;;;5.93;;
8230;SDS011;4156;50.908;6.974;2023-05-21T08:17:07;7.23;;;5.83;;
8230;SDS011;4156;50.908;6.974;2023-05-21T08:19:33;7.00;;;5.80;;
8230;SDS011;4156;50.908;6.974;2023-05-21T08:21:59;6.57;;;5.43;;
8230;SDS011;4156;50.908;6.974;2023-05-21T08:24:24;6.47;;;5.77;;
8230;SDS011;4156;50.908;6.974;2023-05-21T08:26:50;5.60;;;4.60;;
8230;SDS011;4156;50.908;6.974;2023-05-21T08:29:15;7.77;;;6.27;;
8230;SDS011;4156;50.908;6.974;2023-05-21T08:31:41;7.13;;;5.23;;
8230;SDS011;4156;50.908;6.974;2023-05-21T08:34:06;7.63;;;6.13;;
8230;SDS011;4156;50.908;6.974;2023-05-21T08:36:32;7.10;;;4.67;;
8230;SDS011;4156;50.908;6.974;2023-05-21T08:38:58;5.07;;;4.57;;
8230;SDS011;4156;50.908;6.974;2023-05-21T08:41:23;6.63;;;4.53;;
8230;SDS011;4156;50.908;6.974;2023-05-21T08:43:53;7.53;;;5.10;;
8230;SDS011;4156;50.908;6.974;2023-05-21T08:46:22;5.87;;;5.10;;
8230;SDS011;4156;50.908;6.974;2023-05-21T08:48:49;6.37;;;5.03;;
8230;SDS011;4156;50.908;6.974;2023-05-21T08:51:18;5.20;;;4.63;;
8230;SDS011;4156;50.908;6.974;2023-05-21T08:53:45;6.03;;;5.13;;
8230;SDS011;4156;50.908;6.974;2023-05-21T08:56:11;5.20;;;4.70;;
8230;SDS011;4156;50.908;6.974;2023-05-21T08:58:37;5.73;;;4.67;;
8230;SDS011;4156;50.908;6.974;2023-05-21T09:01:06;8.10;;;4.93;;
8230;SDS011;4156;50.908;6.974;2023-05-21T09:03:33;6.50;;;5.23;;
8230;SDS011;4156;50.908;6.974;2023-05-21T09:06:03;6.53;;;5.40;;
8230;SDS011;4156;50.908;6.974;2023-05-21T09:08:34;7.03;;;5.17;;
8230;SDS011;4156;50.908;6.974;2023-05-21T09:11:00;6.37;;;4.80;;
8230;SDS011;4156;50.908;6.974;2023-05-21T09:13:27;6.10;;;4.83;;
8230;SDS011;4156;50.908;6.974;2023-05-21T09:15:55;6.87;;;5.10;;
8230;SDS011;4156;50.908;6.974;2023-05-21T09:18:21;7.30;;;5.13;;
8230;SDS011;4156;50.908;6.974;2023-05-21T09:20:46;5.80;;;4.87;;
8230;SDS011;4156;50.908;6.974;2023-05-21T09:23:15;7.73;;;5.13;;
8230;SDS011;4156;50.908;6.974;2023-05-21T09:25:44;5.97;;;5.37;;
8230;SDS011;4156;50.908;6.974;2023-05-21T09:28:11;6.83;;;4.80;;
8230;SDS011;4156;50.908;6.974;2023-05-21T09:30:45;8.00;;;5.23;;
8230;SDS011;4156;50.908;6.974;2023-05-21T09:33:11;7.33;;;6.03;;
8230;SDS011;4156;50.908;6.974;2023-05-21T09:35:42;8.27;;;6.37;;
8230;SDS011;4156;50.908;6.974;2023-05-21T09:38:09;8.17;;;6.03;;
8230;SDS011;4156;50.908;6.974;2023-05-21T09:40:34;7.03;;;5.80;;
8230;SDS011;4156;50.908;6.974;2023-05-21T09:43:00;7.93;;;5.30;;
8230;SDS011;4156;50.908;6.974;2023-05-21T09:45:26;8.00;;;6.30;;
8230;SDS011;4156;50.908;6.974;2023-05-21T09:47:52;7.23;;;5.10;;
8230;SDS011;4156;50.908;6.974;2023-05-21T09:50:29;6.23;;;5.07;;
8230;SDS011;4156;50.908;6.974;2023-05-21T09:52:55;6.37;;;5.23;;
8230;SDS011;4156;50.908;6.974;2023-05-21T09:55:22;7.07;;;5.43;;
8230;SDS011;4156;50.908;6.974;2023-05-21T09:57:49;6.07;;;5.20;;
8230;SDS011;4156;50.908;6.974;2023-05-21T10:00:22;7.33;;;5.47;;
8230;SDS011;4156;50.908;6.974;2023-05-21T10:02:54;6.70;;;5.63;;
8230;SDS011;4156;50.908;6.974;2023-05-21T10:05:28;6.50;;;5.80;;
8230;SDS011;4156;50.908;6.974;2023-05-21T10:08:00;7.03;;;5.87;;
8230;SDS011;4156;50.908;6.974;2023-05-21T10:10:28;6.70;;;6.07;;
8230;SDS011;4156;50.908;6.974;2023-05-21T10:13:05;7.23;;;5.87;;
8230;SDS011;4156;50.908;6.974;2023-05-21T10:16:15;8.07;;;6.13;;
8230;SDS011;4156;50.908;6.974;2023-05-21T10:18:25;7.53;;;6.03;;
8230;SDS011;4156;50.908;6.974;2023-05-21T10:20:52;7.43;;;6.33;;
8230;SDS011;4156;50.908;6.974;2023-05-21T10:23:17;7.60;;;5.70;;
8230;SDS011;4156;50.908;6.974;2023-05-21T10:25:44;7.33;;;6.07;;
8230;SDS011;4156;50.908;6.974;2023-05-21T10:28:12;7.60;;;6.80;;
8230;SDS011;4156;50.908;6.974;2023-05-21T10:30:40;7.33;;;6.30;;
8230;SDS011;4156;50.908;6.974;2023-05-21T10:33:06;7.10;;;6.20;;
8230;SDS011;4156;50.908;6.974;2023-05-21T10:35:33;7.70;;;6.10;;
8230;SDS011;4156;50.908;6.974;2023-05-21T10:38:01;8.57;;;7.10;;
8230;SDS011;4156;50.908;6.974;2023-05-21T10:40:28;6.90;;;6.20;;
8230;SDS011;4156;50.908;6.974;2023-05-21T10:43:11;8.10;;;6.57;;
8230;SDS011;4156;50.908;6.974;2023-05-21T10:49:00;9.63;;;6.73;;
8230;SDS011;4156;50.908;6.974;2023-05-21T11:00:09;9.07;;;6.80;;
8230;SDS011;4156;50.908;6.974;2023-05-21T11:02:36;10.90;;;7.00;;
8230;SDS011;4156;50.908;6.974;2023-05-21T11:05:02;9.17;;;7.50;;
8230;SDS011;4156;50.908;6.974;2023-05-21T11:07:48;9.73;;;6.73;;
8230;SDS011;4156;50.908;6.974;2023-05-21T11:10:36;8.13;;;6.80;;
8230;SDS011;4156;50.908;6.974;2023-05-21T11:13:12;7.20;;;6.23;;
8230;SDS011;4156;50.908;6.974;2023-05-21T11:21:09;7.07;;;6.37;;
8230;SDS011;4156;50.908;6.974;2023-05-21T11:23:52;8.23;;;6.30;;
8230;SDS011;4156;50.908;6.974;2023-05-21T11:26:20;8.87;;;6.87;;
8230;SDS011;4156;50.908;6.974;2023-05-21T11:29:11;6.57;;;5.93;;
8230;SDS011;4156;50.908;6.974;2023-05-21T11:31:36;7.73;;;6.50;;
8230;SDS011;4156;50.908;6.974;2023-05-21T11:34:22;8.17;;;5.93;;
8230;SDS011;4156;50.908;6.974;2023-05-21T11:39:54;7.87;;;6.17;;
8230;SDS011;4156;50.908;6.974;2023-05-21T11:42:30;8.27;;;7.03;;
8230;SDS011;4156;50.908;6.974;2023-05-21T11:44:56;8.90;;;7.10;;
8230;SDS011;4156;50.908;6.974;2023-05-21T11:47:23;7.83;;;7.00;;
8230;SDS011;4156;50.908;6.974;2023-05-21T11:49:50;8.37;;;7.17;;
8230;SDS011;4156;50.908;6.974;2023-05-21T11:52:15;8.03;;;6.97;;
8230;SDS011;4156;50.908;6.974;2023-05-21T11:54:52;7.17;;;6.43;;
8230;SDS011;4156;50.908;6.974;2023-05-21T11:57:20;9.03;;;7.20;;
8230;SDS011;4156;50.908;6.974;2023-05-21T11:59:47;8.07;;;6.97;;
8230;SDS011;4156;50.908;6.974;2023-05-21T12:02:16;9.93;;;6.33;;
8230;SDS011;4156;50.908;6.974;2023-05-21T12:04:46;7.33;;;6.57;;
8230;SDS011;4156;50.908;6.974;2023-05-21T12:07:13;7.00;;;6.30;;
8230;SDS011;4156;50.908;6.974;2023-05-21T12:09:40;8.93;;;7.60;;
8230;SDS011;4156;50.908;6.974;2023-05-21T12:12:13;7.50;;;6.70;;
8230;SDS011;4156;50.908;6.974;2023-05-21T12:14:44;8.13;;;6.50;;
8230;SDS011;4156;50.908;6.974;2023-05-21T12:17:11;8.10;;;7.27;;
8230;SDS011;4156;50.908;6.974;2023-05-21T12:19:39;7.90;;;7.03;;
8230;SDS011;4156;50.908;6.974;2023-05-21T12:22:05;7.30;;;6.60;;
8230;SDS011;4156;50.908;6.974;2023-05-21T12:24:35;8.47;;;7.07;;
8230;SDS011;4156;50.908;6.974;2023-05-21T12:27:03;7.87;;;6.97;;
8230;SDS011;4156;50.908;6.974;2023-05-21T12:29:37;7.83;;;7.00;;
8230;SDS011;4156;50.908;6.974;2023-05-21T12:32:05;8.37;;;6.73;;
8230;SDS011;4156;50.908;6.974;2023-05-21T12:37:13;7.67;;;6.97;;
8230;SDS011;4156;50.908;6.974;2023-05-21T12:39:44;7.93;;;6.90;;
8230;SDS011;4156;50.908;6.974;2023-05-21T12:42:11;9.43;;;7.40;;
8230;SDS011;4156;50.908;6.974;2023-05-21T12:44:38;8.03;;;7.00;;
8230;SDS011;4156;50.908;6.974;2023-05-21T12:47:12;7.87;;;6.93;;
8230;SDS011;4156;50.908;6.974;2023-05-21T12:52:07;7.57;;;6.83;;
8230;SDS011;4156;50.908;6.974;2023-05-21T12:54:35;7.40;;;6.27;;
8230;SDS011;4156;50.908;6.974;2023-05-21T12:57:05;6.83;;;6.13;;
8230;SDS011;4156;50.908;6.974;2023-05-21T12:59:52;6.47;;;5.77;;
8230;SDS011;4156;50.908;6.974;2023-05-21T13:02:21;8.03;;;6.70;;
8230;SDS011;4156;50.908;6.974;2023-05-21T13:05:02;8.83;;;7.07;;
8230;SDS011;4156;50.908;6.974;2023-05-21T13:07:29;7.73;;;6.60;;
8230;SDS011;4156;50.908;6.974;2023-05-21T13:09:56;8.97;;;7.33;;
8230;SDS011;4156;50.908;6.974;2023-05-21T13:12:22;10.80;;;7.10;;
8230;SDS011;4156;50.908;6.974;2023-05-21T13:14:49;9.20;;;6.97;;
8230;SDS011;4156;50.908;6.974;2023-05-21T13:17:15;8.10;;;7.30;;
8230;SDS011;4156;50.908;6.974;2023-05-21T13:19:41;8.97;;;7.17;;
8230;SDS011;4156;50.908;6.974;2023-05-21T13:22:07;7.53;;;6.73;;
8230;SDS011;4156;50.908;6.974;2023-05-21T13:24:34;9.83;;;6.93;;
8230;SDS011;4156;50.908;6.974;2023-05-21T13:27:00;7.77;;;6.50;;
8230;SDS011;4156;50.908;6.974;2023-05-21T13:29:25;7.10;;;6.33;;
8230;SDS011;4156;50.908;6.974;2023-05-21T13:31:51;8.67;;;6.93;;
8230;SDS011;4156;50.908;6.974;2023-05-21T13:34:16;7.80;;;7.00;;
8230;SDS011;4156;50.908;6.974;2023-05-21T13:36:42;8.13;;;7.10;;
8230;SDS011;4156;50.908;6.974;2023-05-21T13:39:07;7.93;;;7.13;;
8230;SDS011;4156;50.908;6.974;2023-05-21T13:41:33;7.10;;;6.40;;
8230;SDS011;4156;50.908;6.974;2023-05-21T13:43:59;9.53;;;7.83;;
8230;SDS011;4156;50.908;6.974;2023-05-21T13:46:24;8.53;;;7.20;;
8230;SDS011;4156;50.908;6.974;2023-05-21T13:48:50;7.73;;;6.97;;
8230;SDS011;4156;50.908;6.974;2023-05-21T13:51:15;9.27;;;7.10;;
8230;SDS011;4156;50.908;6.974;2023-05-21T13:53:41;8.67;;;7.63;;
8230;SDS011;4156;50.908;6.974;2023-05-21T13:56:06;8.87;;;7.67;;
8230;SDS011;4156;50.908;6.974;2023-05-21T13:58:32;8.20;;;7.37;;
8230;SDS011;4156;50.908;6.974;2023-05-21T14:01:01;9.03;;;7.30;;
8230;SDS011;4156;50.908;6.974;2023-05-21T14:03:27;8.70;;;7.10;;
8230;SDS011;4156;50.908;6.974;2023-05-21T14:05:53;8.00;;;7.20;;
8230;SDS011;4156;50.908;6.974;2023-05-21T14:08:19;7.87;;;6.87;;
8230;SDS011;4156;50.908;6.974;2023-05-21T14:10:47;8.83;;;7.17;;
8230;SDS011;4156;50.908;6.974;2023-05-21T14:13:13;8.60;;;7.30;;
8230;SDS011;4156;50.908;6.974;2023-05-21T14:15:39;8.60;;;7.70;;
8230;SDS011;4156;50.908;6.974;2023-05-21T14:18:06;9.80;;;7.13;;
8230;SDS011;4156;50.908;6.974;2023-05-21T14:20:35;7.67;;;6.87;;
8230;SDS011;4156;50.908;6.974;2023-05-21T14:23:04;8.60;;;6.90;;
8230;SDS011;4156;50.908;6.974;2023-05-21T14:25:29;8.33;;;7.37;;
8230;SDS011;4156;50.908;6.974;2023-05-21T14:27:55;9.07;;;7.40;;
8230;SDS011;4156;50.908;6.974;2023-05-21T14:30:21;7.80;;;7.00;;
8230;SDS011;4156;50.908;6.974;2023-05-21T14:32:46;8.40;;;7.50;;
8230;SDS011;4156;50.908;6.974;2023-05-21T14:35:12;9.33;;;7.20;;
8230;SDS011;4156;50.908;6.974;2023-05-21T14:37:37;8.90;;;7.07;;
8230;SDS011;4156;50.908;6.974;2023-05-21T14:40:03;8.70;;;7.30;;
8230;SDS011;4156;50.908;6.974;2023-05-21T14:42:31;10.27;;;7.13;;
8230;SDS011;4156;50.908;6.974;2023-05-21T14:44:57;8.10;;;7.30;;
8230;SDS011;4156;50.908;6.974;2023-05-21T14:47:23;8.10;;;7.30;;
8230;SDS011;4156;50.908;6.974;2023-05-21T14:49:49;9.37;;;7.83;;
8230;SDS011;4156;50.908;6.974;2023-05-21T14:52:15;7.80;;;7.00;;
8230;SDS011;4156;50.908;6.974;2023-05-21T14:54:40;8.67;;;7.57;;
8230;SDS011;4156;50.908;6.974;2023-05-21T14:57:06;8.77;;;7.33;;
8230;SDS011;4156;50.908;6.974;2023-05-21T14:59:31;9.33;;;7.43;;
8230;SDS011;4156;50.908;6.974;2023-05-21T15:01:57;8.43;;;7.53;;
8230;SDS011;4156;50.908;6.974;2023-05-21T15:04:22;9.47;;;7.57;;
8230;SDS011;4156;50.908;6.974;2023-05-21T15:06:48;9.03;;;7.57;;
8230;SDS011;4156;50.908;6.974;2023-05-21T15:09:14;8.40;;;7.23;;
8230;SDS011;4156;50.908;6.974;2023-05-21T15:11:39;7.53;;;6.73;;
8230;SDS011;4156;50.908;6.974;2023-05-21T15:14:07;8.00;;;7.20;;
8230;SDS011;4156;50.908;6.974;2023-05-21T15:16:33;9.07;;;7.57;;
8230;SDS011;4156;50.908;6.974;2023-05-21T15:18:58;7.97;;;7.17;;
8230;SDS011;4156;50.908;6.974;2023-05-21T15:21:24;8.53;;;7.67;;
8230;SDS011;4156;50.908;6.974;2023-05-21T15:23:49;8.83;;;7.63;;
8230;SDS011;4156;50.908;6.974;2023-05-21T15:26:15;8.53;;;7.60;;
8230;SDS011;4156;50.908;6.974;2023-05-21T15:28:41;8.40;;;7.30;;
8230;SDS011;4156;50.908;6.974;2023-05-21T15:31:06;12.27;;;7.80;;
8230;SDS011;4156;50.908;6.974;2023-05-21T15:33:32;9.60;;;8.33;;
8230;SDS011;4156;50.908;6.974;2023-05-21T15:35:57;10.87;;;8.30;;
8230;SDS011;4156;50.908;6.974;2023-05-21T15:38:23;10.73;;;8.57;;
8230;SDS011;4156;50.908;6.974;2023-05-21T15:40:48;9.20;;;7.80;;
8230;SDS011;4156;50.908;6.974;2023-05-21T15:43:14;9.43;;;8.43;;
8230;SDS011;4156;50.908;6.974;2023-05-21T15:45:39;10.00;;;8.93;;
8230;SDS011;4156;50.908;6.974;2023-05-21T15:48:05;10.03;;;8.70;;
8230;SDS011;4156;50.908;6.974;2023-05-21T15:50:31;15.37;;;10.67;;
8230;SDS011;4156;50.908;6.974;2023-05-21T15:52:59;15.67;;;10.80;;
8230;SDS011;4156;50.908;6.974;2023-05-21T15:55:24;13.47;;;10.57;;
8230;SDS011;4156;50.908;6.974;2023-05-21T15:57:50;11.00;;;9.50;;
8230;SDS011;4156;50.908;6.974;2023-05-21T16:00:15;11.10;;;9.63;;
8230;SDS011;4156;50.908;6.974;2023-05-21T16:02:41;9.50;;;8.60;;
8230;SDS011;4156;50.908;6.974;2023-05-21T16:05:07;9.47;;;8.50;;